アデレード の空港の天気 - METARとTAF

アデレード空港 ( YPAD / ADL ) - オーストラリア 南オーストラリア州アデレード
飛行場実況気象(Metar)
観測時間01/29 19:00 ACDT (01/29 08:30 UTC)
風向・風速南南東 7m/s
視程10km以上
天気現象
少しの雲 雲底高度 1280m
気温25℃
湿度57%
気圧1013hPa
METARYPAD 290830Z 15014KT 9999 FEW042 25/16 Q1013
過去の天気等 Google飛行場航空写真 Wunderground天気予報

過去48時間のMETAR

飛行場予報(TAF)
発表時間: 1/29 18:45 ACDT (1/29 08:15 UTC)
予報対象時間: 29日19時 ACDT ~ 30日22時 ACDT
風向・風速南南東 7m/s
視程10km以上
なし
29日22時 ACDT から
風向・風速南東 4m/s
視程10km以上
なし
30日6時 ACDT から
風向・風速不定 3m/s
視程10km以上
なし
30日11時 ACDT から
風向・風速西 5m/s
視程10km以上
なし
30日13時 ACDT から
風向・風速南西 6m/s
視程10km以上
なし
30日17時 ACDT ~ 30日18時 ACDT に徐々に
風向・風速南南東 5m/s
視程10km以上
なし
TAF YPAD 290815Z 2909/3012 16014KT CAVOK
FM291200 13008KT CAVOK
FM292000 VRB05KT CAVOK
FM300100 27010KT CAVOK
FM300300 23012KT CAVOK
BECMG 3007/3008 15010KT CAVOK